Time;durP1;ratioP1;P1;durP2;ratioP2;P2;SDS_P1;SDS_P2;PMS_P1;PMS_P2;Temp;Humidity;BMP_temperature;BMP_pressure;BME280_temperature;BME280_humidity;BME280_pressure;Samples;Min_cycle;Max_cycle;Signal;HPM_P1;HPM_P2
2022/01/14 00:01:22;;;;;;;30.88;16.55;;;-1.60;99.90;;;;;;4976871;28;20400;-88
2022/01/14 00:03:47;;;;;;;38.22;16.60;;;-1.60;99.90;;;;;;4976749;28;20030;-87
2022/01/14 00:06:18;;;;;;;35.67;15.85;;;-1.70;99.90;;;;;;4975939;28;20034;-87
2022/01/14 00:09:04;;;;;;;32.38;15.68;;;-1.60;99.90;;;;;;4991507;28;20049;-86
2022/01/14 00:11:31;;;;;;;36.80;16.10;;;-1.70;99.90;;;;;;4993415;28;20026;-86
2022/01/14 00:16:29;;;;;;;31.30;16.83;;;-1.70;99.90;;;;;;4990811;28;20044;-86
2022/01/14 00:19:07;;;;;;;39.45;18.60;;;-1.60;99.90;;;;;;4975113;28;20110;-87
2022/01/14 00:21:51;;;;;;;37.00;17.85;;;-1.60;99.90;;;;;;4979167;28;20040;-87
2022/01/14 00:32:48;;;;;;;37.78;17.40;;;-1.70;99.90;;;;;;5046695;22;20091;-80
2022/01/14 00:35:15;;;;;;;41.85;17.75;;;-1.70;99.90;;;;;;5026884;28;20408;-80
2022/01/14 00:37:41;;;;;;;42.00;18.23;;;-1.60;99.90;;;;;;5031771;28;20045;-80
2022/01/14 00:40:07;;;;;;;37.58;17.67;;;-1.60;99.90;;;;;;5032062;28;20057;-80
2022/01/14 00:42:33;;;;;;;32.72;17.02;;;-1.60;99.90;;;;;;5026859;28;20028;-80
2022/01/14 00:44:58;;;;;;;35.50;16.05;;;-1.70;99.90;;;;;;5026095;28;20443;-80
2022/01/14 00:47:24;;;;;;;32.70;15.45;;;-1.60;99.90;;;;;;5030672;28;20029;-80
2022/01/14 00:49:50;;;;;;;28.95;14.70;;;-1.60;99.90;;;;;;5024914;28;20037;-80
2022/01/14 00:52:15;;;;;;;28.73;13.77;;;-1.60;99.90;;;;;;5038021;28;20089;-79
2022/01/14 00:54:42;;;;;;;29.38;13.18;;;-1.60;99.90;;;;;;5028048;28;20026;-79
2022/01/14 00:59:34;;;;;;;28.63;12.25;;;-1.60;99.90;;;;;;5034015;28;20025;-79
2022/01/14 01:02:01;;;;;;;28.50;12.40;;;-1.60;99.90;;;;;;5026693;28;20575;-80
2022/01/14 01:04:33;;;;;;;25.75;11.63;;;-1.50;99.90;;;;;;5011069;28;20094;-80
2022/01/14 01:07:01;;;;;;;25.92;11.98;;;-1.50;99.90;;;;;;5030314;28;20035;-79
2022/01/14 01:09:29;;;;;;;25.23;11.05;;;-1.50;99.90;;;;;;5026509;28;20481;-80
2022/01/14 01:12:10;;;;;;;27.17;10.82;;;-1.50;99.90;;;;;;5019139;28;20029;-80
2022/01/14 01:14:44;;;;;;;28.13;12.02;;;-1.50;99.90;;;;;;5032640;28;20060;-80
2022/01/14 01:17:09;;;;;;;;;;;-1.50;99.90;;;;;;5026623;28;20543;-80
2022/01/14 01:19:35;;;;;;;23.60;11.30;;;-1.50;99.90;;;;;;5032750;28;19909;-79
2022/01/14 01:22:01;;;;;;;28.90;12.88;;;-1.50;99.90;;;;;;5025609;28;20028;-79
2022/01/14 01:24:26;;;;;;;27.05;11.60;;;-1.50;99.90;;;;;;5026533;28;20489;-80
2022/01/14 01:26:56;;;;;;;25.77;11.30;;;-1.50;99.90;;;;;;5024504;28;20582;-80
2022/01/14 01:31:54;;;;;;;23.67;11.50;;;-1.50;99.90;;;;;;5029309;28;20393;-79
2022/01/14 01:34:23;;;;;;;21.40;10.82;;;-1.60;99.90;;;;;;5029197;28;20068;-80
2022/01/14 01:36:52;;;;;;;19.33;9.65;;;-1.60;99.90;;;;;;5024379;28;20026;-79
2022/01/14 01:39:20;;;;;;;18.50;9.50;;;-1.60;99.90;;;;;;5032146;28;20021;-79
2022/01/14 01:41:49;;;;;;;22.88;10.05;;;-1.60;99.90;;;;;;5026685;28;20305;-79
2022/01/14 01:44:17;;;;;;;19.75;9.60;;;-1.60;99.90;;;;;;5024673;28;20029;-79
2022/01/14 01:46:46;;;;;;;23.80;10.02;;;-1.70;99.90;;;;;;5010919;28;20029;-79
2022/01/14 01:49:13;;;;;;;23.17;10.43;;;-1.70;99.90;;;;;;5023500;28;20438;-79
2022/01/14 01:51:39;;;;;;;19.55;9.75;;;-1.70;99.90;;;;;;5022743;28;20109;-79
2022/01/14 01:54:05;;;;;;;19.33;9.50;;;-1.70;99.90;;;;;;5018845;28;20037;-79
2022/01/14 01:56:32;;;;;;;18.83;9.38;;;-1.70;99.90;;;;;;5025603;28;20044;-80
2022/01/14 01:58:57;;;;;;;22.95;10.52;;;-1.70;99.90;;;;;;5027903;28;20466;-79
2022/01/14 02:01:24;;;;;;;20.10;9.27;;;-1.80;99.90;;;;;;5010789;28;20080;-80
2022/01/14 02:03:52;;;;;;;19.45;9.32;;;-1.80;99.90;;;;;;5011650;28;20075;-79
2022/01/14 02:06:20;;;;;;;19.88;10.73;;;-1.80;99.90;;;;;;5027973;28;20025;-79
2022/01/14 02:08:45;;;;;;;17.90;9.15;;;-1.80;99.90;;;;;;5019450;28;21400;-79
2022/01/14 02:11:11;;;;;;;21.58;9.68;;;-1.80;99.90;;;;;;5022949;28;20032;-79
2022/01/14 02:13:37;;;;;;;22.38;9.02;;;-1.80;99.90;;;;;;5028860;28;20421;-80
2022/01/14 02:19:00;;;;;;;28.65;12.23;;;-1.90;99.90;;;;;;5028326;28;20135;-80
2022/01/14 02:24:21;;;;;;;27.08;12.73;;;-2.00;99.90;;;;;;5027225;28;20533;-80
2022/01/14 02:26:52;;;;;;;30.48;14.25;;;-1.90;99.90;;;;;;5029306;28;20493;-80
2022/01/14 02:29:19;;;;;;;41.20;16.40;;;-1.90;99.90;;;;;;5012218;28;20112;-80
2022/01/14 02:31:45;;;;;;;39.70;15.57;;;-1.90;99.90;;;;;;5013273;28;20057;-79
2022/01/14 02:34:13;;;;;;;36.70;17.20;;;-1.90;99.90;;;;;;5014082;28;20060;-80
2022/01/14 02:36:43;;;;;;;32.92;16.40;;;-1.90;99.90;;;;;;5015294;28;20108;-80
2022/01/14 02:39:11;;;;;;;34.20;16.70;;;-1.90;99.90;;;;;;5016175;28;20051;-79
2022/01/14 02:41:38;;;;;;;33.90;17.20;;;-1.90;99.90;;;;;;5027937;28;20029;-80
2022/01/14 02:44:09;;;;;;;38.47;17.08;;;-2.00;99.90;;;;;;5028800;28;20021;-79
2022/01/14 02:46:42;;;;;;;39.45;18.00;;;-2.00;99.90;;;;;;5011207;28;20035;-80
2022/01/14 02:49:08;;;;;;;40.38;16.65;;;-2.00;99.90;;;;;;5031277;28;20049;-80
2022/01/14 02:51:34;;;;;;;36.85;16.40;;;-2.00;99.90;;;;;;5024436;28;20489;-80
2022/01/14 02:54:12;;;;;;;32.88;15.27;;;-2.00;99.90;;;;;;5015183;28;20026;-79
2022/01/14 02:56:46;;;;;;;40.53;16.48;;;-2.10;99.90;;;;;;5030686;28;20029;-79
2022/01/14 02:59:14;;;;;;;32.65;16.35;;;-2.10;99.90;;;;;;5027159;28;20028;-80
2022/01/14 03:01:41;;;;;;;28.88;15.80;;;-2.10;99.90;;;;;;5010044;28;20030;-80
2022/01/14 03:04:08;;;;;;;34.08;16.30;;;-2.20;99.90;;;;;;5024876;28;20120;-80
2022/01/14 03:06:34;;;;;;;31.60;16.80;;;-2.20;99.90;;;;;;5013408;28;20093;-79
2022/01/14 03:09:00;;;;;;;37.42;17.23;;;-2.20;99.90;;;;;;5029713;28;20040;-79
2022/01/14 03:11:29;;;;;;;37.65;18.17;;;-2.10;99.90;;;;;;5031190;28;20037;-78
2022/01/14 03:13:55;;;;;;;32.30;14.68;;;-2.20;99.90;;;;;;5031586;28;20044;-79
2022/01/14 03:16:22;;;;;;;24.73;12.38;;;-2.20;99.90;;;;;;5009607;28;20032;-79
2022/01/14 03:18:51;;;;;;;26.23;12.18;;;-2.20;99.90;;;;;;5024731;28;20029;-79
2022/01/14 03:21:26;;;;;;;26.02;11.43;;;-2.20;99.90;;;;;;5023436;28;20540;-79
2022/01/14 03:24:02;;;;;;;26.77;10.02;;;-2.20;99.90;;;;;;5030632;28;20025;-80
2022/01/14 03:26:29;;;;;;;24.38;10.65;;;-2.20;99.90;;;;;;5010272;28;20040;-80
2022/01/14 03:28:55;;;;;;;23.02;10.20;;;-2.20;99.90;;;;;;5026654;28;20025;-79
2022/01/14 03:31:21;;;;;;;21.45;10.40;;;-2.20;99.90;;;;;;5011008;28;20070;-80
2022/01/14 03:33:47;;;;;;;29.13;11.68;;;-2.20;99.90;;;;;;5025885;28;20674;-79
2022/01/14 03:36:12;;;;;;;23.58;11.40;;;-2.20;99.90;;;;;;5031708;28;20044;-79
2022/01/14 03:38:38;;;;;;;30.77;12.82;;;-2.20;99.90;;;;;;5016740;28;20587;-79
2022/01/14 03:41:04;;;;;;;28.95;12.32;;;-2.20;99.90;;;;;;5014411;28;20044;-79
2022/01/14 03:43:30;;;;;;;24.70;11.57;;;-2.10;99.90;;;;;;5032045;28;20033;-80
2022/01/14 03:45:57;;;;;;;24.52;11.52;;;-2.20;99.90;;;;;;5011453;28;20040;-79
2022/01/14 03:48:23;;;;;;;17.38;9.25;;;-2.20;99.90;;;;;;5019658;28;20021;-79
2022/01/14 03:50:48;;;;;;;18.48;8.07;;;-2.10;99.90;;;;;;5028793;28;20087;-79
2022/01/14 03:53:14;;;;;;;17.13;8.02;;;-2.20;99.90;;;;;;5013922;28;20473;-79
2022/01/14 03:55:43;;;;;;;14.15;6.90;;;-2.20;99.90;;;;;;5014185;28;20041;-79
2022/01/14 03:58:09;;;;;;;17.63;7.47;;;-2.20;99.90;;;;;;5018880;28;20551;-79
2022/01/14 04:00:36;;;;;;;17.42;7.97;;;-2.20;99.90;;;;;;5010869;28;20610;-78
2022/01/14 04:03:02;;;;;;;15.50;7.32;;;-2.20;99.90;;;;;;5009529;28;20022;-79
2022/01/14 04:05:28;;;;;;;13.98;6.32;;;-2.20;99.90;;;;;;5008983;28;20030;-79
2022/01/14 04:07:54;;;;;;;12.90;6.45;;;-2.20;99.90;;;;;;5015428;28;20038;-79
2022/01/14 04:10:21;;;;;;;18.85;7.50;;;-2.20;99.90;;;;;;5018649;28;20036;-79
2022/01/14 04:12:56;;;;;;;12.65;6.45;;;-2.20;99.90;;;;;;5012164;28;20038;-79
2022/01/14 04:15:37;;;;;;;13.18;5.43;;;-2.30;99.90;;;;;;5008446;28;20028;-79
2022/01/14 04:18:08;;;;;;;11.63;5.57;;;-2.30;99.90;;;;;;5008469;28;20018;-79
2022/01/14 04:20:36;;;;;;;12.98;6.43;;;-2.30;99.90;;;;;;5013914;28;20042;-79
2022/01/14 04:23:04;;;;;;;12.02;5.75;;;-2.30;99.90;;;;;;5008597;28;20045;-79
2022/01/14 04:25:32;;;;;;;15.77;6.35;;;-2.30;99.90;;;;;;5014150;28;20028;-79
2022/01/14 04:27:57;;;;;;;17.10;6.85;;;-2.30;99.90;;;;;;5015165;28;20473;-80
2022/01/14 04:30:24;;;;;;;12.85;6.82;;;-2.30;99.90;;;;;;5016167;28;20040;-80
2022/01/14 04:32:51;;;;;;;19.88;8.45;;;-2.30;99.90;;;;;;5012677;28;20846;-80
2022/01/14 04:35:17;;;;;;;25.17;12.18;;;-2.30;99.90;;;;;;5013923;28;20056;-80
2022/01/14 04:37:43;;;;;;;23.38;12.38;;;-2.30;99.90;;;;;;5012330;28;20057;-80
2022/01/14 04:40:09;;;;;;;27.05;14.45;;;-2.30;99.90;;;;;;5014830;28;20119;-80
2022/01/14 04:42:36;;;;;;;28.63;14.32;;;-2.40;99.90;;;;;;5014140;28;20054;-81
2022/01/14 04:45:03;;;;;;;29.95;14.35;;;-2.30;99.90;;;;;;5016223;28;20022;-80
2022/01/14 04:47:33;;;;;;;27.23;13.68;;;-2.30;99.90;;;;;;5012102;28;20033;-80
2022/01/14 04:50:00;;;;;;;33.40;15.65;;;-2.30;99.90;;;;;;5008996;28;20026;-80
2022/01/14 04:52:27;;;;;;;33.03;14.90;;;-2.30;99.90;;;;;;5005369;28;20034;-80
2022/01/14 04:54:54;;;;;;;30.77;15.27;;;-2.30;99.90;;;;;;5010305;28;20033;-81
2022/01/14 04:57:21;;;;;;;32.05;14.90;;;-2.30;99.90;;;;;;5016785;28;20490;-81
2022/01/14 04:59:48;;;;;;;29.25;13.63;;;-2.30;99.90;;;;;;5011314;28;20022;-81
2022/01/14 05:02:14;;;;;;;28.20;13.88;;;-2.30;99.90;;;;;;5011939;28;20018;-81
2022/01/14 05:04:41;;;;;;;31.48;16.15;;;-2.20;99.90;;;;;;5015095;28;20021;-80
2022/01/14 05:07:11;;;;;;;28.33;13.57;;;-2.20;99.90;;;;;;5015937;28;20088;-80
2022/01/14 05:09:41;;;;;;;29.75;13.88;;;-2.20;99.90;;;;;;5011310;28;20120;-80
2022/01/14 05:12:09;;;;;;;30.00;13.38;;;-2.30;99.90;;;;;;5004111;28;20034;-80
2022/01/14 05:14:38;;;;;;;26.83;13.40;;;-2.30;99.90;;;;;;5010729;28;20036;-80
2022/01/14 05:17:04;;;;;;;31.58;13.75;;;-2.30;99.90;;;;;;5026700;28;20428;-80
2022/01/14 05:19:31;;;;;;;32.45;14.95;;;-2.30;99.90;;;;;;5015828;28;20084;-80
2022/01/14 05:21:57;;;;;;;27.05;13.38;;;-2.30;99.90;;;;;;5026797;28;20048;-80
2022/01/14 05:24:24;;;;;;;28.25;14.00;;;-2.40;99.90;;;;;;5012313;28;20403;-80
2022/01/14 05:26:51;;;;;;;35.10;16.33;;;-2.40;99.90;;;;;;5014956;28;20021;-80
2022/01/14 05:29:17;;;;;;;31.38;15.43;;;-2.40;99.90;;;;;;5010644;28;20109;-80
2022/01/14 05:31:52;;;;;;;30.80;14.23;;;-2.40;99.90;;;;;;5012232;28;20026;-81
2022/01/14 05:34:18;;;;;;;30.38;14.55;;;-2.40;99.90;;;;;;5011118;28;20401;-80
2022/01/14 05:36:44;;;;;;;33.78;14.55;;;-2.50;99.90;;;;;;5009772;28;20108;-80
2022/01/14 05:39:11;;;;;;;30.40;14.50;;;-2.50;99.90;;;;;;5009282;28;20129;-80
2022/01/14 05:41:37;;;;;;;29.45;13.63;;;-2.50;99.90;;;;;;5013843;28;20068;-80
2022/01/14 05:44:05;;;;;;;32.88;14.70;;;-2.50;99.90;;;;;;5005286;28;20044;-80
2022/01/14 05:46:31;;;;;;;29.98;15.05;;;-2.60;99.90;;;;;;5003795;28;20367;-80
2022/01/14 05:48:56;;;;;;;28.52;13.90;;;-2.60;99.90;;;;;;5015371;28;20092;-80
2022/01/14 05:51:22;;;;;;;31.88;16.25;;;-2.60;99.90;;;;;;5012994;28;20026;-80
2022/01/14 05:53:48;;;;;;;31.13;15.05;;;-2.60;99.90;;;;;;5016221;28;20064;-80
2022/01/14 05:56:13;;;;;;;23.10;12.20;;;-2.60;99.90;;;;;;5008503;28;20030;-80
2022/01/14 05:58:39;;;;;;;21.65;11.20;;;-2.60;99.90;;;;;;5007584;28;20109;-80
2022/01/14 06:01:05;;;;;;;22.85;11.60;;;-2.60;99.90;;;;;;5013846;28;20022;-80
2022/01/14 06:03:30;;;;;;;21.55;10.32;;;-2.50;99.90;;;;;;5004030;28;20030;-80
2022/01/14 06:05:56;;;;;;;18.65;9.32;;;-2.50;99.90;;;;;;5012097;28;20033;-80
2022/01/14 06:08:22;;;;;;;20.92;8.27;;;-2.50;99.90;;;;;;5016517;28;20152;-80
2022/01/14 06:10:47;;;;;;;18.02;8.23;;;-2.50;99.90;;;;;;5014257;28;20476;-80
2022/01/14 06:13:13;;;;;;;16.80;7.18;;;-2.50;99.90;;;;;;5014174;28;20022;-80
2022/01/14 06:15:39;;;;;;;15.30;7.47;;;-2.50;99.90;;;;;;5007321;28;20102;-80
2022/01/14 06:18:04;;;;;;;17.52;8.13;;;-2.50;99.90;;;;;;5020296;23;20019;-76
2022/01/14 06:20:30;;;;;;;17.90;8.77;;;-2.50;99.90;;;;;;4964951;28;20407;-75
2022/01/14 06:22:55;;;;;;;18.25;9.38;;;-2.50;99.90;;;;;;4966883;28;20031;-76
2022/01/14 06:25:21;;;;;;;20.70;9.15;;;-2.50;99.90;;;;;;4966594;28;20113;-76
2022/01/14 06:27:47;;;;;;;20.70;8.85;;;-2.50;99.90;;;;;;4966899;28;20785;-76
2022/01/14 06:30:13;;;;;;;23.02;9.77;;;-2.50;99.90;;;;;;4968855;28;20031;-75
2022/01/14 06:32:41;;;;;;;23.38;9.93;;;-2.50;99.90;;;;;;4971721;28;20040;-79
2022/01/14 06:35:14;;;;;;;22.88;11.10;;;-2.50;99.90;;;;;;4975610;28;20069;-79
2022/01/14 06:37:41;;;;;;;29.45;12.20;;;-2.40;99.90;;;;;;4967754;28;20138;-76
2022/01/14 06:40:08;;;;;;;27.33;11.93;;;-2.30;99.90;;;;;;4969953;28;20031;-76
2022/01/14 06:42:35;;;;;;;29.55;13.13;;;-2.30;99.90;;;;;;4969941;28;20491;-75
2022/01/14 06:45:01;;;;;;;27.42;13.02;;;-2.30;99.90;;;;;;4971662;28;20030;-76
2022/01/14 06:47:27;;;;;;;24.02;12.07;;;-2.30;99.90;;;;;;4965938;28;20042;-76
2022/01/14 06:49:52;;;;;;;25.83;11.90;;;-2.30;99.90;;;;;;4968805;28;20071;-76
2022/01/14 06:52:18;;;;;;;23.75;10.02;;;-2.30;99.90;;;;;;4974006;28;20065;-77
2022/01/14 06:54:44;;;;;;;19.08;8.75;;;-2.30;99.90;;;;;;4967140;28;20031;-77
2022/01/14 06:57:10;;;;;;;21.65;9.52;;;-2.30;99.90;;;;;;4970082;28;20078;-76
2022/01/14 06:59:36;;;;;;;19.77;8.35;;;-2.30;99.90;;;;;;4973376;28;20030;-76
2022/01/14 07:02:02;;;;;;;19.77;7.82;;;-2.30;99.90;;;;;;4978926;28;20099;-77
2022/01/14 07:04:27;;;;;;;20.35;8.20;;;-2.30;99.90;;;;;;4961509;28;20034;-77
2022/01/14 07:06:53;;;;;;;15.05;7.47;;;-2.30;99.90;;;;;;4970628;28;20026;-76
2022/01/14 07:09:19;;;;;;;20.52;8.63;;;-2.30;99.90;;;;;;4970035;28;20361;-76
2022/01/14 07:11:52;;;;;;;13.27;6.78;;;-2.30;99.90;;;;;;4975763;28;20026;-76
2022/01/14 07:14:17;;;;;;;17.15;6.63;;;-2.30;99.90;;;;;;4965494;28;20027;-76
2022/01/14 07:16:43;;;;;;;23.75;8.50;;;-2.30;99.90;;;;;;4971822;28;20042;-76
2022/01/14 07:19:09;;;;;;;16.83;7.43;;;-2.20;99.90;;;;;;4970349;28;20031;-76
2022/01/14 07:21:34;;;;;;;17.17;7.65;;;-2.30;99.90;;;;;;4969772;28;20110;-76
2022/01/14 07:24:02;;;;;;;17.90;8.27;;;-2.30;99.90;;;;;;4970480;28;20035;-77
2022/01/14 07:26:27;;;;;;;21.20;9.65;;;-2.20;99.90;;;;;;4975725;28;20096;-76
2022/01/14 07:28:53;;;;;;;20.33;10.18;;;-2.20;99.90;;;;;;4967463;28;20117;-75
2022/01/14 07:31:19;;;;;;;21.77;10.40;;;-2.20;99.90;;;;;;4968237;28;20074;-76
2022/01/14 07:33:44;;;;;;;25.92;10.80;;;-2.20;99.90;;;;;;4969997;28;20042;-77
2022/01/14 07:36:10;;;;;;;19.33;10.35;;;-2.20;99.90;;;;;;4970009;28;20093;-77
2022/01/14 07:38:36;;;;;;;22.70;11.48;;;-2.20;99.90;;;;;;4976027;28;20061;-77
2022/01/14 07:41:02;;;;;;;21.65;10.32;;;-2.20;99.90;;;;;;4972376;28;20031;-77
2022/01/14 07:43:27;;;;;;;25.10;11.55;;;-2.20;99.90;;;;;;4970744;28;20041;-77
2022/01/14 07:45:53;;;;;;;24.75;11.38;;;-2.10;99.90;;;;;;4966175;28;20035;-77
2022/01/14 07:48:19;;;;;;;21.63;10.50;;;-2.10;99.90;;;;;;4971490;28;20045;-77
2022/01/14 07:50:45;;;;;;;29.77;12.00;;;-2.00;99.90;;;;;;4969649;28;20023;-77
2022/01/14 07:53:11;;;;;;;26.38;11.80;;;-2.00;99.90;;;;;;4967810;28;20495;-78
2022/01/14 07:55:36;;;;;;;27.08;12.50;;;-1.90;99.90;;;;;;4967804;28;20039;-76
2022/01/14 07:58:03;;;;;;;23.90;12.15;;;-1.90;99.90;;;;;;4967351;28;20086;-78
2022/01/14 08:00:30;;;;;;;27.42;12.05;;;-1.90;99.90;;;;;;4958808;28;20404;-77
2022/01/14 08:02:56;;;;;;;23.35;11.88;;;-1.80;99.90;;;;;;4960886;28;20499;-76
2022/01/14 08:05:22;;;;;;;20.98;11.80;;;-1.80;99.90;;;;;;4964592;28;20026;-78
2022/01/14 08:07:51;;;;;;;23.77;11.68;;;-1.80;99.90;;;;;;4967013;28;20031;-77
2022/01/14 08:10:17;;;;;;;23.50;11.73;;;-1.70;99.90;;;;;;4967012;28;20502;-78
2022/01/14 08:12:43;;;;;;;21.73;11.45;;;-1.70;99.90;;;;;;4965095;28;20033;-77
2022/01/14 08:15:10;;;;;;;23.65;11.38;;;-1.70;99.90;;;;;;4975427;28;20026;-77
2022/01/14 08:17:35;;;;;;;22.95;11.73;;;-1.70;99.90;;;;;;4969037;28;20073;-76
2022/01/14 08:20:01;;;;;;;28.15;11.07;;;-1.60;99.90;;;;;;4969174;28;20022;-77
2022/01/14 08:22:28;;;;;;;19.50;9.98;;;-1.50;99.90;;;;;;4972932;28;20026;-76
2022/01/14 08:24:54;;;;;;;21.42;10.32;;;-1.50;99.90;;;;;;4965489;28;20026;-77
2022/01/14 08:27:20;;;;;;;26.20;11.57;;;-1.40;99.90;;;;;;4968949;28;20027;-77
2022/01/14 08:29:47;;;;;;;17.55;9.25;;;-1.30;99.90;;;;;;4966669;28;20142;-76
2022/01/14 08:32:13;;;;;;;18.70;10.00;;;-1.30;99.90;;;;;;4966010;28;20023;-79
2022/01/14 08:34:39;;;;;;;21.77;9.90;;;-1.20;99.90;;;;;;4971785;28;20027;-77
2022/01/14 08:37:05;;;;;;;15.50;9.27;;;-1.20;99.90;;;;;;4970227;28;20085;-78
2022/01/14 08:39:31;;;;;;;22.38;10.02;;;-1.10;99.90;;;;;;4968824;28;20033;-77
2022/01/14 08:41:58;;;;;;;20.73;10.18;;;-1.10;99.90;;;;;;4987455;28;20027;-77
2022/01/14 08:44:24;;;;;;;20.85;10.35;;;-1.00;99.90;;;;;;4974637;28;20031;-78
2022/01/14 08:46:51;;;;;;;24.10;10.38;;;-1.00;99.90;;;;;;4978710;28;20442;-77
2022/01/14 08:49:17;;;;;;;20.38;9.68;;;-1.00;99.90;;;;;;4972035;28;20027;-77
2022/01/14 08:51:43;;;;;;;21.15;10.50;;;-0.90;99.90;;;;;;4972972;28;20034;-78
2022/01/14 08:54:09;;;;;;;22.08;8.93;;;-0.80;99.90;;;;;;4979646;28;20104;-79
2022/01/14 08:56:34;;;;;;;17.67;9.23;;;-0.80;99.90;;;;;;4969412;28;20039;-79
2022/01/14 08:59:00;;;;;;;17.60;8.48;;;-0.70;99.90;;;;;;4977665;28;20030;-79
2022/01/14 09:01:26;;;;;;;19.52;8.48;;;-0.70;99.90;;;;;;4973060;28;20037;-79
2022/01/14 09:03:52;;;;;;;16.02;8.68;;;-0.60;99.90;;;;;;4975073;28;20023;-79
2022/01/14 09:06:18;;;;;;;17.58;8.40;;;-0.50;99.90;;;;;;4970456;28;20082;-79
2022/01/14 09:08:44;;;;;;;20.00;9.63;;;-0.50;99.90;;;;;;4959740;28;20027;-80
2022/01/14 09:11:10;;;;;;;21.63;11.13;;;-0.30;99.90;;;;;;4969878;28;20023;-80
2022/01/14 09:13:35;;;;;;;20.67;10.43;;;-0.30;99.90;;;;;;4971135;28;20266;-78
2022/01/14 09:16:01;;;;;;;21.48;10.65;;;-0.20;99.90;;;;;;4969476;28;20457;-78
2022/01/14 09:18:28;;;;;;;19.90;10.73;;;-0.10;99.90;;;;;;4972709;28;20114;-78
2022/01/14 09:20:54;;;;;;;22.52;10.65;;;-0.10;99.90;;;;;;4966514;28;20055;-78
2022/01/14 09:23:24;;;;;;;24.73;11.57;;;0.00;99.90;;;;;;4969650;28;20062;-78
2022/01/14 09:25:53;;;;;;;25.17;11.63;;;0.00;99.90;;;;;;4967762;28;20930;-78
2022/01/14 09:28:19;;;;;;;21.67;11.48;;;0.10;99.90;;;;;;4970358;28;20406;-78
2022/01/14 09:30:45;;;;;;;21.90;10.70;;;0.20;99.90;;;;;;4969463;28;20026;-79
2022/01/14 09:33:12;;;;;;;23.48;12.52;;;0.20;99.90;;;;;;4972136;28;20078;-78
2022/01/14 09:35:40;;;;;;;24.40;11.60;;;0.30;99.90;;;;;;4973944;28;20058;-79
2022/01/14 09:38:06;;;;;;;24.38;12.07;;;0.30;99.90;;;;;;4972664;28;20089;-79
2022/01/14 09:40:32;;;;;;;31.73;12.93;;;0.40;99.90;;;;;;4967052;28;20069;-78
2022/01/14 09:43:01;;;;;;;24.75;12.43;;;0.40;99.90;;;;;;4964868;28;20475;-78
2022/01/14 09:45:28;;;;;;;24.48;12.18;;;0.50;99.90;;;;;;4968614;28;20032;-78
2022/01/14 09:47:55;;;;;;;28.23;13.57;;;0.50;99.90;;;;;;4969786;28;20035;-79
2022/01/14 09:50:22;;;;;;;28.02;12.30;;;0.60;99.90;;;;;;4972503;28;20026;-79
2022/01/14 09:52:51;;;;;;;26.52;11.73;;;0.70;99.90;;;;;;4967888;28;20053;-78
2022/01/14 09:55:18;;;;;;;22.58;11.23;;;0.70;99.90;;;;;;4970142;28;20114;-78
2022/01/14 09:57:44;;;;;;;24.30;12.18;;;0.70;99.90;;;;;;4967190;28;20081;-80
2022/01/14 10:00:10;;;;;;;19.83;11.05;;;0.80;99.90;;;;;;4972745;28;20050;-79
2022/01/14 10:02:40;;;;;;;25.55;10.85;;;0.90;99.90;;;;;;4970684;28;20015;-77
2022/01/14 10:05:08;;;;;;;24.52;11.63;;;0.90;99.90;;;;;;4970827;28;20513;-78
2022/01/14 10:07:34;;;;;;;23.02;11.27;;;1.00;99.90;;;;;;4971302;28;20117;-78
2022/01/14 10:10:20;;;;;;;24.05;10.82;;;1.10;99.90;;;;;;4972457;28;20058;-78
2022/01/14 10:12:45;;;;;;;20.42;10.73;;;1.10;99.90;;;;;;4970116;28;20505;-78
2022/01/14 10:15:12;;;;;;;24.15;12.90;;;1.20;99.90;;;;;;4971739;28;20121;-79
2022/01/14 10:17:39;;;;;;;24.30;12.00;;;1.30;99.90;;;;;;4968592;28;20033;-79
2022/01/14 10:20:08;;;;;;;22.92;11.38;;;1.30;99.90;;;;;;4973510;28;20110;-78
2022/01/14 10:22:38;;;;;;;25.20;11.95;;;1.40;99.90;;;;;;4973177;28;20038;-78
2022/01/14 10:25:10;;;;;;;24.75;11.38;;;1.50;99.90;;;;;;4968019;28;20076;-79
2022/01/14 10:27:51;;;;;;;20.05;11.00;;;1.50;99.90;;;;;;4970217;28;20493;-79
2022/01/14 10:30:23;;;;;;;22.38;11.10;;;1.60;99.90;;;;;;4970678;28;20477;-78
2022/01/14 10:32:59;;;;;;;21.13;10.90;;;1.70;99.90;;;;;;4971700;28;20127;-79
2022/01/14 10:35:29;;;;;;;20.80;9.45;;;1.80;99.90;;;;;;4967763;28;20662;-80
2022/01/14 10:37:59;;;;;;;15.77;9.27;;;1.80;99.90;;;;;;4967121;28;20042;-80
2022/01/14 10:40:28;;;;;;;17.88;8.35;;;1.90;99.90;;;;;;4968066;28;20415;-80
2022/01/14 10:43:04;;;;;;;15.25;7.63;;;1.90;99.90;;;;;;4970414;28;20026;-80
2022/01/14 10:45:31;;;;;;;13.95;6.85;;;2.00;99.90;;;;;;4964907;28;20509;-80
2022/01/14 10:48:02;;;;;;;13.15;7.53;;;2.00;99.90;;;;;;4968275;28;20031;-78
2022/01/14 10:50:37;;;;;;;14.82;7.07;;;2.00;99.90;;;;;;4968077;28;20030;-80
2022/01/14 10:53:25;;;;;;;16.95;7.95;;;2.10;99.90;;;;;;4970491;28;20035;-81
2022/01/14 10:55:59;;;;;;;16.80;8.57;;;2.10;99.90;;;;;;4968608;28;20037;-82
2022/01/14 10:58:31;;;;;;;19.63;9.23;;;2.10;99.90;;;;;;4970437;28;20054;-80
2022/01/14 11:01:00;;;;;;;16.42;8.35;;;2.20;99.90;;;;;;4967313;28;20029;-79
2022/01/14 11:03:47;;;;;;;16.60;8.10;;;2.20;99.90;;;;;;4967354;28;20388;-77
2022/01/14 11:06:23;;;;;;;17.92;7.80;;;2.30;99.90;;;;;;4967285;28;20023;-79
2022/01/14 11:09:02;;;;;;;17.75;8.63;;;2.40;99.90;;;;;;4967371;28;20403;-78
2022/01/14 11:11:29;;;;;;;16.42;7.80;;;2.40;99.90;;;;;;4972604;28;20031;-78
2022/01/14 11:13:55;;;;;;;22.88;8.43;;;2.40;99.90;;;;;;4967334;28;20110;-77
2022/01/14 11:16:22;;;;;;;23.40;8.07;;;2.50;99.90;;;;;;4968830;28;20027;-78
2022/01/14 11:18:48;;;;;;;18.00;7.80;;;2.60;99.90;;;;;;4971413;28;20061;-80
2022/01/14 11:23:59;;;;;;;17.45;7.55;;;2.60;99.90;;;;;;4965864;28;20093;-77
2022/01/14 11:26:32;;;;;;;23.35;9.32;;;2.70;99.90;;;;;;4974973;28;20027;-78
2022/01/14 11:29:12;;;;;;;18.15;8.77;;;2.70;99.90;;;;;;4970002;28;20022;-78
2022/01/14 11:31:39;;;;;;;16.98;8.82;;;2.80;99.90;;;;;;4971072;28;20027;-78
2022/01/14 11:34:08;;;;;;;16.92;8.57;;;2.80;99.90;;;;;;4971912;28;20035;-79
2022/01/14 11:36:53;;;;;;;16.40;8.52;;;2.80;99.90;;;;;;4966878;28;20031;-80
2022/01/14 11:39:24;;;;;;;16.00;7.95;;;2.90;99.90;;;;;;4964970;28;20078;-79
2022/01/14 11:42:14;;;;;;;17.38;8.95;;;2.90;99.90;;;;;;4966428;28;20036;-79
2022/01/14 11:44:50;;;;;;;14.43;8.02;;;2.90;99.90;;;;;;4971117;28;20026;-80
2022/01/14 11:47:44;;;;;;;15.80;8.23;;;3.00;99.90;;;;;;4969810;28;20023;-80
2022/01/14 11:50:18;;;;;;;;;;;3.10;99.90;;;;;;4962258;28;20122;-78
2022/01/14 11:52:45;;;;;;;17.98;8.18;;;3.10;99.90;;;;;;4965921;28;20105;-81
2022/01/14 11:55:32;;;;;;;15.40;8.07;;;3.20;99.90;;;;;;4971784;28;20037;-80
2022/01/14 11:58:03;;;;;;;16.23;8.77;;;3.20;99.90;;;;;;4969061;28;20034;-79
2022/01/14 12:00:47;;;;;;;18.38;9.02;;;3.30;99.90;;;;;;4970822;28;20034;-78
2022/01/14 12:03:13;;;;;;;15.43;8.80;;;3.30;99.90;;;;;;4973287;28;20023;-79
2022/01/14 12:05:56;;;;;;;17.08;8.80;;;3.40;99.90;;;;;;4966418;28;20448;-78
2022/01/14 12:08:32;;;;;;;18.73;8.75;;;3.50;99.90;;;;;;4968712;28;20136;-78
2022/01/14 12:11:07;;;;;;;13.18;7.03;;;3.50;99.90;;;;;;4971375;28;20037;-80
2022/01/14 12:14:00;;;;;;;12.30;7.28;;;3.60;99.90;;;;;;4979710;28;20030;-80
2022/01/14 12:18:58;;;;;;;15.02;7.50;;;3.60;99.90;;;;;;4989627;23;20102;-72
2022/01/14 12:21:42;;;;;;;17.40;8.35;;;3.60;99.90;;;;;;4992438;28;20443;-71
2022/01/14 12:24:27;;;;;;;14.57;8.30;;;3.60;99.90;;;;;;4970013;28;20034;-71
2022/01/14 12:27:03;;;;;;;16.60;8.02;;;3.70;99.90;;;;;;4978803;28;20142;-72
2022/01/14 12:29:35;;;;;;;13.38;7.38;;;3.70;99.90;;;;;;4966685;28;20031;-72
2022/01/14 12:32:09;;;;;;;11.50;6.28;;;3.70;99.90;;;;;;4958472;28;20062;-70
2022/01/14 12:35:00;;;;;;;15.15;6.70;;;3.80;99.90;;;;;;4973324;28;20463;-71
2022/01/14 12:37:29;;;;;;;11.95;6.60;;;4.00;99.90;;;;;;4967133;28;20059;-71
2022/01/14 12:39:56;;;;;;;29.65;8.82;;;4.00;99.90;;;;;;4966176;28;20038;-71
2022/01/14 12:42:23;;;;;;;16.98;7.13;;;4.00;99.90;;;;;;4973889;28;20025;-72
2022/01/14 12:44:52;;;;;;;14.82;7.82;;;4.10;99.90;;;;;;4971335;28;20491;-71
2022/01/14 12:47:23;;;;;;;13.70;6.72;;;4.10;99.90;;;;;;4971889;28;20037;-71
2022/01/14 12:49:49;;;;;;;14.63;7.78;;;4.20;99.90;;;;;;4971789;28;20039;-71
2022/01/14 12:52:27;;;;;;;14.18;7.28;;;4.40;99.90;;;;;;4969132;28;20046;-70
2022/01/14 12:54:53;;;;;;;14.48;7.35;;;4.50;99.90;;;;;;4967264;28;20475;-72
2022/01/14 12:57:22;;;;;;;14.93;7.22;;;4.50;99.90;;;;;;4971779;28;20303;-72
2022/01/14 12:59:50;;;;;;;14.43;6.82;;;4.50;99.90;;;;;;4963550;28;20077;-71
2022/01/14 13:02:18;;;;;;;13.73;6.78;;;4.50;99.90;;;;;;4964228;28;20050;-72
2022/01/14 13:04:44;;;;;;;14.15;7.97;;;4.60;99.90;;;;;;4980309;28;20078;-72
2022/01/14 13:07:11;;;;;;;20.02;8.88;;;4.60;99.90;;;;;;4971871;28;20483;-72
2022/01/14 13:09:40;;;;;;;14.43;7.78;;;4.70;99.90;;;;;;4968442;28;20074;-73